Accueil
METAR-TAF:

METAR-TAF

Aéroports :

Port Angeles, Washington, États-Unis

latitude: 48-07-20N, longitude: 123-30-19W, altitude: 87 m

Observation

Le bulletin a été fait il y a 11 minutes, à 21:53 UTC
Vent 6 kt de est
Température 8°C
Humidité 87%
Pression 1030 hPa
Visibilité: 16.1 km
Ciel clair

METAR: KCLM 122153Z AUTO 10006KT 10SM CLR 08/06 A3042 RMK AO2 SLP305 T00830056

Heure: 14:04 (22:04 UTC)

Prévision

Le bulletin a été fait il y a 4 heures et 44 minutes, à 17:20 UTC
Prévision valable du 12 à 18 UTC au 13 à 18 UTC
Vent 3 kt de sud
Visibilité: 10 km
Nuages épars à une hauteur de 6000 ft
Nuages fragmentés à une hauteur de 20000 ft
A partir de 12 à 2000 UTC
Vent 4 kt de direction variable
Visibilité: 10 km
Nuages épars à une hauteur de 8000 ft
Nuages épars à une hauteur de 20000 ft

TAF: KCLM 121720Z 1218/1318 19003KT P6SM SCT060 BKN200 FM122000 VRB04KT P6SM SCT080 SCT200

Observations et prévisions météorologiques de plus de 4000 aéroports (messages METAR et TAF).

Les stations disponibles sont représentées par des disques jaunes et rouges sur la carte.

Passer la souris dessus pour voir le nom de la station.

Cliquer dessus pour voir les observations et prévisions météorologiques.

Pour changer de carte: cliquez sur les boutons verts avec une croix noire pour zoomer, sur le bouton vert avec un tiret pour effectuer un zoom arrière, ou sur les flèches vertes pour les cartes adjacentes.


METAR-TAF: